Hauptseite
METAR-TAF:

METAR-TAF

Flughäfen :

Capo Mele

Andora, Italien

Breite: 43-57N, Länge: 008-10E, Höhe: 220 m

Beobachtung

Neuester Wetterbericht von vor 1 Stunde und 9 Minuten, um 03:55 UTC
Wind 15 kt aus Nordost, Böen bis zu 25 kt
Temperatur 10°C
Luftfeuchtigkeit 62%
Luftdruck 1002 hPa
Sichtweite: 8000 m
Aufgelockert bewölkt in der Höhe von 1500 ft
Durchbrochene Bewölkung in der Höhe von 2500 ft
Leichtregen

METAR: LIMU 170355Z 05015G25KT 8000 -RA SCT015 BKN025 10/03 Q1002 RMK OVC QUK / QUL / VIS MAR 8 KM VIS MIN 8000

Zeit: 06:04 (05:04 UTC)


TAF: fehlend

Wetterbeobachtungen und Prognosen von mehr als 4000 Flughäfen (METAR und TAF Bericht).

Die verfügbaren Stationen werden durch gelbe und rote Markierungen auf der Karte dargestellt.

Führen Sie die Maus auf sie, um den Namen der Station zu sehen.

Darauf klicken, um die Beobachtung von Wetterbeobachtungen und Prognosen zu sehen.

Um die Karte zu ändern : klicken Sie auf den grünen Tasten mit einem schwarzen Kreuz Zum Vergrößern, auf den grünen Button mit einem Gedankenstrich zu verkleinern, oder auf die grünen Pfeile für benachbarte Karten.


METAR-TAF: